sensor_id;sensor_type;location;lat;lon;timestamp;pressure;altitude;pressure_sealevel;temperature;humidity
12951;BME280;6540;50.858;7.232;2023-05-19T00:01:44;51794.03;;;-142.34;27.08
12951;BME280;6540;50.858;7.232;2023-05-19T00:04:12;51775.88;;;-142.34;27.29
12951;BME280;6540;50.858;7.232;2023-05-19T00:06:39;51790.00;;;-142.34;27.07
12951;BME280;6540;50.858;7.232;2023-05-19T00:09:10;51749.66;;;-142.34;27.78
12951;BME280;6540;50.858;7.232;2023-05-19T00:11:37;51800.06;;;-142.34;27.17
12951;BME280;6540;50.858;7.232;2023-05-19T00:14:05;51733.50;;;-142.34;27.57
12951;BME280;6540;50.858;7.232;2023-05-19T00:16:31;51798.06;;;-142.34;27.14
12951;BME280;6540;50.858;7.232;2023-05-19T00:18:57;51802.09;;;-142.34;26.82
12951;BME280;6540;50.858;7.232;2023-05-19T00:21:27;51757.72;;;-142.34;26.27
12951;BME280;6540;50.858;7.232;2023-05-19T00:23:53;51759.72;;;-142.34;26.32
12951;BME280;6540;50.858;7.232;2023-05-19T00:26:19;51745.59;;;-142.34;26.94
12951;BME280;6540;50.858;7.232;2023-05-19T00:28:45;51777.88;;;-142.34;27.14
12951;BME280;6540;50.858;7.232;2023-05-19T00:31:11;51753.69;;;-142.34;26.96
12951;BME280;6540;50.858;7.232;2023-05-19T00:33:36;51779.91;;;-142.34;26.97
12951;BME280;6540;50.858;7.232;2023-05-19T00:36:02;51761.75;;;-142.34;26.00
12951;BME280;6540;50.858;7.232;2023-05-19T00:38:29;51741.56;;;-142.34;26.39
12951;BME280;6540;50.858;7.232;2023-05-19T00:40:55;51763.75;;;-142.34;26.62
12951;BME280;6540;50.858;7.232;2023-05-19T00:43:20;51761.75;;;-142.34;26.02
12951;BME280;6540;50.858;7.232;2023-05-19T00:45:46;51747.63;;;-142.34;26.76
12951;BME280;6540;50.858;7.232;2023-05-19T00:48:11;51773.84;;;-142.34;26.84
12951;BME280;6540;50.858;7.232;2023-05-19T00:50:36;51753.69;;;-142.34;25.80
12951;BME280;6540;50.858;7.232;2023-05-19T00:53:02;51755.69;;;-142.34;25.88
12951;BME280;6540;50.858;7.232;2023-05-19T00:55:30;51771.84;;;-142.34;26.08
12951;BME280;6540;50.858;7.232;2023-05-19T00:57:56;51749.66;;;-142.34;25.63
12951;BME280;6540;50.858;7.232;2023-05-19T01:00:22;51735.53;;;-142.34;25.47
12951;BME280;6540;50.858;7.232;2023-05-19T01:02:47;51753.69;;;-142.34;25.81
12951;BME280;6540;50.858;7.232;2023-05-19T01:05:15;51753.69;;;-142.34;25.97
12951;BME280;6540;50.858;7.232;2023-05-19T01:07:41;51745.59;;;-142.34;25.60
12951;BME280;6540;50.858;7.232;2023-05-19T01:10:07;51721.41;;;-142.34;26.16
12951;BME280;6540;50.858;7.232;2023-05-19T01:12:33;51733.50;;;-142.34;26.37
12951;BME280;6540;50.858;7.232;2023-05-19T01:14:59;51757.72;;;-142.34;26.53
12951;BME280;6540;50.858;7.232;2023-05-19T01:20:14;51798.06;;;-142.34;26.38
12951;BME280;6540;50.858;7.232;2023-05-19T01:31:36;51775.88;;;-142.34;26.71
12951;BME280;6540;50.858;7.232;2023-05-19T01:34:02;51761.75;;;-142.34;26.44
12951;BME280;6540;50.858;7.232;2023-05-19T01:36:30;51703.25;;;-142.34;26.27
12951;BME280;6540;50.858;7.232;2023-05-19T01:38:57;51755.69;;;-142.34;26.10
12951;BME280;6540;50.858;7.232;2023-05-19T01:41:24;51753.69;;;-142.34;25.91
12951;BME280;6540;50.858;7.232;2023-05-19T01:43:50;51781.91;;;-142.34;26.04
12951;BME280;6540;50.858;7.232;2023-05-19T01:46:16;51771.84;;;-142.34;26.26
12951;BME280;6540;50.858;7.232;2023-05-19T01:48:45;51802.09;;;-142.34;25.92
12951;BME280;6540;50.858;7.232;2023-05-19T01:51:11;51790.00;;;-142.34;26.45
12951;BME280;6540;50.858;7.232;2023-05-19T01:53:37;51781.91;;;-142.34;25.68
12951;BME280;6540;50.858;7.232;2023-05-19T01:56:03;51765.78;;;-142.34;25.88
12951;BME280;6540;50.858;7.232;2023-05-19T01:58:52;51769.81;;;-142.34;26.27
12951;BME280;6540;50.858;7.232;2023-05-19T02:01:48;51759.72;;;-142.34;25.68
12951;BME280;6540;50.858;7.232;2023-05-19T02:07:00;51757.72;;;-142.34;26.67
12951;BME280;6540;50.858;7.232;2023-05-19T02:09:50;51769.81;;;-142.34;26.44
12951;BME280;6540;50.858;7.232;2023-05-19T02:12:37;51769.81;;;-142.34;26.63
12951;BME280;6540;50.858;7.232;2023-05-19T02:15:13;51761.75;;;-142.34;26.63
12951;BME280;6540;50.858;7.232;2023-05-19T02:17:42;51769.81;;;-142.34;26.71
12951;BME280;6540;50.858;7.232;2023-05-19T02:20:12;51769.81;;;-142.34;26.86
12951;BME280;6540;50.858;7.232;2023-05-19T02:22:37;51775.88;;;-142.34;27.22
12951;BME280;6540;50.858;7.232;2023-05-19T02:25:03;51790.00;;;-142.34;27.11
12951;BME280;6540;50.858;7.232;2023-05-19T02:27:29;51806.13;;;-142.34;26.40
12951;BME280;6540;50.858;7.232;2023-05-19T02:29:55;51808.16;;;-142.34;25.83
12951;BME280;6540;50.858;7.232;2023-05-19T02:32:20;51773.84;;;-142.34;25.95
12951;BME280;6540;50.858;7.232;2023-05-19T02:34:46;51773.84;;;-142.34;25.76
12951;BME280;6540;50.858;7.232;2023-05-19T02:37:14;51773.84;;;-142.34;25.59
12951;BME280;6540;50.858;7.232;2023-05-19T02:39:41;51773.84;;;-142.34;26.35
12951;BME280;6540;50.858;7.232;2023-05-19T02:42:06;51741.56;;;-142.34;26.10
12951;BME280;6540;50.858;7.232;2023-05-19T02:44:32;51777.88;;;-142.34;25.99
12951;BME280;6540;50.858;7.232;2023-05-19T02:46:57;51781.91;;;-142.34;25.61
12951;BME280;6540;50.858;7.232;2023-05-19T02:49:22;51773.84;;;-142.34;25.80
12951;BME280;6540;50.858;7.232;2023-05-19T02:51:48;51820.25;;;-142.34;26.17
12951;BME280;6540;50.858;7.232;2023-05-19T02:54:13;51781.91;;;-142.34;26.43
12951;BME280;6540;50.858;7.232;2023-05-19T02:56:39;51796.03;;;-142.34;26.90
12951;BME280;6540;50.858;7.232;2023-05-19T02:59:04;51790.00;;;-142.34;26.70
12951;BME280;6540;50.858;7.232;2023-05-19T03:01:30;51757.72;;;-142.34;26.55
12951;BME280;6540;50.858;7.232;2023-05-19T03:03:57;51806.13;;;-142.34;26.39
12951;BME280;6540;50.858;7.232;2023-05-19T03:06:22;51777.88;;;-142.34;26.61
12951;BME280;6540;50.858;7.232;2023-05-19T03:08:48;51785.94;;;-142.34;26.51
12951;BME280;6540;50.858;7.232;2023-05-19T03:11:14;51818.22;;;-142.34;26.27
12951;BME280;6540;50.858;7.232;2023-05-19T03:13:40;51806.13;;;-142.34;27.02
12951;BME280;6540;50.858;7.232;2023-05-19T03:16:05;51802.09;;;-142.34;26.37
12951;BME280;6540;50.858;7.232;2023-05-19T03:18:32;51781.91;;;-142.34;25.98
12951;BME280;6540;50.858;7.232;2023-05-19T03:20:58;51796.03;;;-142.34;26.14
12951;BME280;6540;50.858;7.232;2023-05-19T03:23:23;51798.06;;;-142.34;25.71
12951;BME280;6540;50.858;7.232;2023-05-19T03:25:48;51781.91;;;-142.34;26.44
12951;BME280;6540;50.858;7.232;2023-05-19T03:28:14;51798.06;;;-142.34;26.05
12951;BME280;6540;50.858;7.232;2023-05-19T03:30:39;51804.13;;;-142.34;26.66
12951;BME280;6540;50.858;7.232;2023-05-19T03:33:05;51806.13;;;-142.34;26.47
12951;BME280;6540;50.858;7.232;2023-05-19T03:35:33;51790.00;;;-142.34;26.25
12951;BME280;6540;50.858;7.232;2023-05-19T03:37:58;51810.16;;;-142.34;26.61
12951;BME280;6540;50.858;7.232;2023-05-19T03:40:24;51794.03;;;-142.34;26.24
12951;BME280;6540;50.858;7.232;2023-05-19T03:42:49;51796.03;;;-142.34;26.69
12951;BME280;6540;50.858;7.232;2023-05-19T03:45:14;51826.31;;;-142.34;26.62
12951;BME280;6540;50.858;7.232;2023-05-19T03:47:40;51828.31;;;-142.34;26.69
12951;BME280;6540;50.858;7.232;2023-05-19T03:50:06;51818.22;;;-142.34;26.77
12951;BME280;6540;50.858;7.232;2023-05-19T03:52:31;51790.00;;;-142.34;27.18
12951;BME280;6540;50.858;7.232;2023-05-19T03:54:57;51818.22;;;-142.34;27.37
12951;BME280;6540;50.858;7.232;2023-05-19T03:57:23;51812.19;;;-142.34;26.22
12951;BME280;6540;50.858;7.232;2023-05-19T03:59:48;51814.19;;;-142.34;26.03
12951;BME280;6540;50.858;7.232;2023-05-19T04:02:13;51765.78;;;-142.34;25.75
12951;BME280;6540;50.858;7.232;2023-05-19T04:04:39;51790.00;;;-142.34;25.71
12951;BME280;6540;50.858;7.232;2023-05-19T04:07:04;51781.91;;;-142.34;26.66
12951;BME280;6540;50.858;7.232;2023-05-19T04:09:29;51783.94;;;-142.34;26.02
12951;BME280;6540;50.858;7.232;2023-05-19T04:12:00;51790.00;;;-142.34;26.06
12951;BME280;6540;50.858;7.232;2023-05-19T04:14:26;51785.94;;;-142.34;26.04
12951;BME280;6540;50.858;7.232;2023-05-19T04:16:52;51806.13;;;-142.34;25.75
12951;BME280;6540;50.858;7.232;2023-05-19T04:19:18;51759.72;;;-142.34;25.94
12951;BME280;6540;50.858;7.232;2023-05-19T04:21:43;51798.06;;;-142.34;26.85
12951;BME280;6540;50.858;7.232;2023-05-19T04:24:08;51783.94;;;-142.34;27.90
12951;BME280;6540;50.858;7.232;2023-05-19T04:26:34;51790.00;;;-142.34;27.66
12951;BME280;6540;50.858;7.232;2023-05-19T04:29:00;51794.03;;;-142.34;27.58
12951;BME280;6540;50.858;7.232;2023-05-19T04:31:28;51814.19;;;-142.34;26.28
12951;BME280;6540;50.858;7.232;2023-05-19T04:33:54;51802.09;;;-142.34;25.87
12951;BME280;6540;50.858;7.232;2023-05-19T04:36:19;51798.06;;;-142.34;25.58
12951;BME280;6540;50.858;7.232;2023-05-19T04:38:46;51777.88;;;-142.34;25.55
12951;BME280;6540;50.858;7.232;2023-05-19T04:41:11;51755.69;;;-142.34;25.84
12951;BME280;6540;50.858;7.232;2023-05-19T04:43:37;51733.50;;;-142.34;25.76
12951;BME280;6540;50.858;7.232;2023-05-19T04:46:09;51781.91;;;-142.34;25.63
12951;BME280;6540;50.858;7.232;2023-05-19T04:48:37;51753.69;;;-142.34;26.17
12951;BME280;6540;50.858;7.232;2023-05-19T04:51:04;51765.78;;;-142.34;26.27
12951;BME280;6540;50.858;7.232;2023-05-19T04:53:29;51773.84;;;-142.34;26.39
12951;BME280;6540;50.858;7.232;2023-05-19T04:55:56;51749.66;;;-142.34;26.10
12951;BME280;6540;50.858;7.232;2023-05-19T04:58:21;51753.69;;;-142.34;25.84
12951;BME280;6540;50.858;7.232;2023-05-19T05:00:50;51735.53;;;-142.34;25.85
12951;BME280;6540;50.858;7.232;2023-05-19T05:03:15;51725.44;;;-142.34;25.83
12951;BME280;6540;50.858;7.232;2023-05-19T05:05:41;51729.47;;;-142.34;25.14
12951;BME280;6540;50.858;7.232;2023-05-19T05:08:09;51717.38;;;-142.34;25.15
12951;BME280;6540;50.858;7.232;2023-05-19T05:10:34;51717.38;;;-142.34;25.48
12951;BME280;6540;50.858;7.232;2023-05-19T05:13:00;51741.56;;;-142.34;25.24
12951;BME280;6540;50.858;7.232;2023-05-19T05:15:26;51707.28;;;-142.34;25.14
12951;BME280;6540;50.858;7.232;2023-05-19T05:17:53;51707.28;;;-142.34;25.21
12951;BME280;6540;50.858;7.232;2023-05-19T05:20:22;51660.88;;;-142.34;24.85
12951;BME280;6540;50.858;7.232;2023-05-19T05:22:55;51729.47;;;-142.34;25.14
12951;BME280;6540;50.858;7.232;2023-05-19T05:25:26;51705.25;;;-142.34;25.24
12951;BME280;6540;50.858;7.232;2023-05-19T05:27:51;51713.34;;;-142.34;25.02
12951;BME280;6540;50.858;7.232;2023-05-19T05:30:23;51705.25;;;-142.34;25.39
12951;BME280;6540;50.858;7.232;2023-05-19T05:32:51;51711.31;;;-142.34;24.97
12951;BME280;6540;50.858;7.232;2023-05-19T05:35:17;51679.03;;;-142.34;25.47
12951;BME280;6540;50.858;7.232;2023-05-19T05:37:43;51683.06;;;-142.34;25.07
12951;BME280;6540;50.858;7.232;2023-05-19T05:40:08;51668.97;;;-142.34;24.97
12951;BME280;6540;50.858;7.232;2023-05-19T05:42:34;51699.22;;;-142.34;25.17
12951;BME280;6540;50.858;7.232;2023-05-19T05:44:59;51707.28;;;-142.34;25.59
12951;BME280;6540;50.858;7.232;2023-05-19T05:47:25;51707.28;;;-142.34;25.31
12951;BME280;6540;50.858;7.232;2023-05-19T05:49:50;51703.25;;;-142.34;25.57
12951;BME280;6540;50.858;7.232;2023-05-19T05:52:17;51713.34;;;-142.34;24.96
12951;BME280;6540;50.858;7.232;2023-05-19T05:54:44;51703.25;;;-142.34;25.23
12951;BME280;6540;50.858;7.232;2023-05-19T05:57:10;51701.22;;;-142.34;25.06
12951;BME280;6540;50.858;7.232;2023-05-19T05:59:35;51675.00;;;-142.34;24.71
12951;BME280;6540;50.858;7.232;2023-05-19T06:02:01;51689.13;;;-142.34;25.09
12951;BME280;6540;50.858;7.232;2023-05-19T06:04:26;51677.03;;;-142.34;24.91
12951;BME280;6540;50.858;7.232;2023-05-19T06:06:52;51664.91;;;-142.34;24.79
12951;BME280;6540;50.858;7.232;2023-05-19T06:09:17;51638.69;;;-142.34;24.82
12951;BME280;6540;50.858;7.232;2023-05-19T06:11:43;51652.81;;;-142.34;25.14
12951;BME280;6540;50.858;7.232;2023-05-19T06:14:08;51668.97;;;-142.34;24.95
12951;BME280;6540;50.858;7.232;2023-05-19T06:16:35;51689.13;;;-142.34;25.44
12951;BME280;6540;50.858;7.232;2023-05-19T06:19:00;51721.41;;;-142.34;25.52
12951;BME280;6540;50.858;7.232;2023-05-19T06:21:26;51654.84;;;-142.34;24.89
12951;BME280;6540;50.858;7.232;2023-05-19T06:23:51;51650.81;;;-142.34;24.67
12951;BME280;6540;50.858;7.232;2023-05-19T06:26:17;51608.44;;;-142.34;24.46
12951;BME280;6540;50.858;7.232;2023-05-19T06:28:42;51624.56;;;-142.34;24.21
12951;BME280;6540;50.858;7.232;2023-05-19T06:31:08;51566.09;;;-142.34;23.87
12951;BME280;6540;50.858;7.232;2023-05-19T06:33:33;51541.88;;;-142.34;23.41
12951;BME280;6540;50.858;7.232;2023-05-19T06:35:58;51582.22;;;-142.34;23.45
12951;BME280;6540;50.858;7.232;2023-05-19T06:38:24;51547.94;;;-142.34;23.48
12951;BME280;6540;50.858;7.232;2023-05-19T06:40:49;51527.75;;;-142.34;23.01
12951;BME280;6540;50.858;7.232;2023-05-19T06:43:14;51467.25;;;-142.34;22.11
12951;BME280;6540;50.858;7.232;2023-05-19T06:45:40;51455.13;;;-142.34;22.55
12951;BME280;6540;50.858;7.232;2023-05-19T06:48:05;51408.75;;;-142.34;21.98
12951;BME280;6540;50.858;7.232;2023-05-19T06:50:30;51374.44;;;-142.34;22.28
12951;BME280;6540;50.858;7.232;2023-05-19T06:52:56;51358.31;;;-142.34;21.50
12951;BME280;6540;50.858;7.232;2023-05-19T06:55:22;51402.69;;;-142.34;21.72
12951;BME280;6540;50.858;7.232;2023-05-19T06:57:47;51358.31;;;-142.34;21.52
12951;BME280;6540;50.858;7.232;2023-05-19T07:00:13;51398.66;;;-142.34;21.31
12951;BME280;6540;50.858;7.232;2023-05-19T07:02:38;51348.22;;;-142.34;21.84
12951;BME280;6540;50.858;7.232;2023-05-19T07:05:04;51447.06;;;-142.34;22.51
12951;BME280;6540;50.858;7.232;2023-05-19T07:07:30;51426.91;;;-142.34;21.47
12951;BME280;6540;50.858;7.232;2023-05-19T07:09:55;51358.31;;;-142.34;21.40
12951;BME280;6540;50.858;7.232;2023-05-19T07:12:21;51434.97;;;-142.34;22.04
12951;BME280;6540;50.858;7.232;2023-05-19T07:14:46;51376.47;;;-142.34;21.73
12951;BME280;6540;50.858;7.232;2023-05-19T07:17:11;51453.13;;;-142.34;22.04
12951;BME280;6540;50.858;7.232;2023-05-19T07:19:37;51404.72;;;-142.34;21.90
12951;BME280;6540;50.858;7.232;2023-05-19T07:22:03;51354.28;;;-142.34;21.82
12951;BME280;6540;50.858;7.232;2023-05-19T07:24:28;51432.94;;;-142.34;22.74
12951;BME280;6540;50.858;7.232;2023-05-19T07:26:55;51459.16;;;-142.34;22.52
12951;BME280;6540;50.858;7.232;2023-05-19T07:29:20;51535.81;;;-142.34;22.61
12951;BME280;6540;50.858;7.232;2023-05-19T07:31:45;51507.59;;;-142.34;22.45
12951;BME280;6540;50.858;7.232;2023-05-19T07:34:11;51580.19;;;-142.34;23.60
12951;BME280;6540;50.858;7.232;2023-05-19T07:36:36;51588.28;;;-142.34;22.83
12951;BME280;6540;50.858;7.232;2023-05-19T07:39:02;51620.53;;;-142.34;23.25
12951;BME280;6540;50.858;7.232;2023-05-19T07:41:27;51582.22;;;-142.34;22.46
12951;BME280;6540;50.858;7.232;2023-05-19T07:43:53;51564.06;;;-142.34;23.24
12951;BME280;6540;50.858;7.232;2023-05-19T07:46:18;51596.34;;;-142.34;22.84
12951;BME280;6540;50.858;7.232;2023-05-19T07:48:44;51608.44;;;-142.34;23.63
12951;BME280;6540;50.858;7.232;2023-05-19T07:51:11;51560.03;;;-142.34;23.00
12951;BME280;6540;50.858;7.232;2023-05-19T07:53:36;51620.53;;;-142.34;23.24
12951;BME280;6540;50.858;7.232;2023-05-19T07:56:03;51592.31;;;-142.34;23.65
12951;BME280;6540;50.858;7.232;2023-05-19T07:58:28;51568.09;;;-142.34;22.97
12951;BME280;6540;50.858;7.232;2023-05-19T08:00:57;51576.16;;;-142.34;23.11
12951;BME280;6540;50.858;7.232;2023-05-19T08:03:23;51596.34;;;-142.34;23.41
12951;BME280;6540;50.858;7.232;2023-05-19T08:05:49;51624.56;;;-142.34;23.53
12951;BME280;6540;50.858;7.232;2023-05-19T08:08:14;51616.50;;;-142.34;23.60
12951;BME280;6540;50.858;7.232;2023-05-19T08:10:44;51584.22;;;-142.34;23.04
12951;BME280;6540;50.858;7.232;2023-05-19T08:13:09;51582.22;;;-142.34;22.70
12951;BME280;6540;50.858;7.232;2023-05-19T08:15:35;51535.81;;;-142.34;22.38
12951;BME280;6540;50.858;7.232;2023-05-19T08:18:00;51535.81;;;-142.34;22.94
12951;BME280;6540;50.858;7.232;2023-05-19T08:20:27;51556.00;;;-142.34;23.22
12951;BME280;6540;50.858;7.232;2023-05-19T08:22:52;51562.03;;;-142.34;22.94
12951;BME280;6540;50.858;7.232;2023-05-19T08:25:17;51624.56;;;-142.34;23.65
12951;BME280;6540;50.858;7.232;2023-05-19T08:27:43;51580.19;;;-142.34;22.48
12951;BME280;6540;50.858;7.232;2023-05-19T08:30:10;51572.13;;;-142.34;22.55
12951;BME280;6540;50.858;7.232;2023-05-19T08:32:35;51547.94;;;-142.34;22.42
12951;BME280;6540;50.858;7.232;2023-05-19T08:35:00;51598.34;;;-142.34;23.19
12951;BME280;6540;50.858;7.232;2023-05-19T08:37:26;51564.06;;;-142.34;22.93
12951;BME280;6540;50.858;7.232;2023-05-19T08:39:51;51584.22;;;-142.34;23.00
12951;BME280;6540;50.858;7.232;2023-05-19T08:42:16;51584.22;;;-142.34;22.77
12951;BME280;6540;50.858;7.232;2023-05-19T08:44:42;51604.41;;;-142.34;22.65
12951;BME280;6540;50.858;7.232;2023-05-19T08:47:08;51644.75;;;-142.34;22.42
12951;BME280;6540;50.858;7.232;2023-05-19T08:49:43;51600.38;;;-142.34;22.66
12951;BME280;6540;50.858;7.232;2023-05-19T08:52:26;51596.34;;;-142.34;22.89
12951;BME280;6540;50.858;7.232;2023-05-19T08:55:06;51634.66;;;-142.34;23.23
12951;BME280;6540;50.858;7.232;2023-05-19T08:57:34;51604.41;;;-142.34;23.06
12951;BME280;6540;50.858;7.232;2023-05-19T09:00:01;51604.41;;;-142.34;22.65
12951;BME280;6540;50.858;7.232;2023-05-19T09:02:28;51523.72;;;-142.34;22.04
12951;BME280;6540;50.858;7.232;2023-05-19T09:04:54;51539.84;;;-142.34;22.24
12951;BME280;6540;50.858;7.232;2023-05-19T09:07:21;51614.50;;;-142.34;23.28
12951;BME280;6540;50.858;7.232;2023-05-19T09:09:49;51564.06;;;-142.34;22.33
12951;BME280;6540;50.858;7.232;2023-05-19T09:12:15;51543.88;;;-142.34;21.96
12951;BME280;6540;50.858;7.232;2023-05-19T09:14:40;51590.28;;;-142.34;22.31
12951;BME280;6540;50.858;7.232;2023-05-19T09:17:06;51582.22;;;-142.34;21.58
12951;BME280;6540;50.858;7.232;2023-05-19T09:19:31;51560.03;;;-142.34;22.24
12951;BME280;6540;50.858;7.232;2023-05-19T09:22:01;51578.19;;;-142.34;22.41
12951;BME280;6540;50.858;7.232;2023-05-19T09:24:29;51586.25;;;-142.34;22.83
12951;BME280;6540;50.858;7.232;2023-05-19T09:26:55;51568.09;;;-142.34;21.70
12951;BME280;6540;50.858;7.232;2023-05-19T09:29:23;51590.28;;;-142.34;22.13
12951;BME280;6540;50.858;7.232;2023-05-19T09:31:51;51556.00;;;-142.34;22.10
12951;BME280;6540;50.858;7.232;2023-05-19T09:34:18;51588.28;;;-142.34;22.44
12951;BME280;6540;50.858;7.232;2023-05-19T09:36:46;51660.88;;;-142.34;23.47
12951;BME280;6540;50.858;7.232;2023-05-19T09:39:15;51638.69;;;-142.34;23.02
12951;BME280;6540;50.858;7.232;2023-05-19T09:41:41;51596.34;;;-142.34;22.33
12951;BME280;6540;50.858;7.232;2023-05-19T09:44:08;51586.25;;;-142.34;22.23
12951;BME280;6540;50.858;7.232;2023-05-19T09:46:36;51578.19;;;-142.34;22.05
12951;BME280;6540;50.858;7.232;2023-05-19T09:49:08;51473.28;;;-142.34;21.72
12951;BME280;6540;50.858;7.232;2023-05-19T09:51:36;51471.28;;;-142.34;20.84
12951;BME280;6540;50.858;7.232;2023-05-19T09:54:02;51531.78;;;-142.34;21.50
12951;BME280;6540;50.858;7.232;2023-05-19T09:56:35;51499.50;;;-142.34;21.49
12951;BME280;6540;50.858;7.232;2023-05-19T09:59:02;51523.72;;;-142.34;22.00
12951;BME280;6540;50.858;7.232;2023-05-19T10:01:29;51566.09;;;-142.34;21.99
12951;BME280;6540;50.858;7.232;2023-05-19T10:03:55;51515.66;;;-142.34;21.74
12951;BME280;6540;50.858;7.232;2023-05-19T10:06:21;51604.41;;;-142.34;22.42
12951;BME280;6540;50.858;7.232;2023-05-19T10:08:48;51592.31;;;-142.34;22.75
12951;BME280;6540;50.858;7.232;2023-05-19T10:11:16;51519.69;;;-142.34;21.70
12951;BME280;6540;50.858;7.232;2023-05-19T10:13:41;51574.16;;;-142.34;22.06
12951;BME280;6540;50.858;7.232;2023-05-19T10:16:08;51517.66;;;-142.34;21.99
12951;BME280;6540;50.858;7.232;2023-05-19T10:18:33;51519.69;;;-142.34;21.50
12951;BME280;6540;50.858;7.232;2023-05-19T10:20:59;51487.41;;;-142.34;20.92
12951;BME280;6540;50.858;7.232;2023-05-19T10:23:25;51483.38;;;-142.34;21.30
12951;BME280;6540;50.858;7.232;2023-05-19T10:25:55;51457.16;;;-142.34;20.08
12951;BME280;6540;50.858;7.232;2023-05-19T10:28:24;51539.84;;;-142.34;21.43
12951;BME280;6540;50.858;7.232;2023-05-19T10:30:53;51618.53;;;-142.34;22.41
12951;BME280;6540;50.858;7.232;2023-05-19T10:36:43;51592.31;;;-142.34;22.00
12951;BME280;6540;50.858;7.232;2023-05-19T10:39:16;51614.50;;;-142.34;22.23
12951;BME280;6540;50.858;7.232;2023-05-19T10:46:58;51594.31;;;-142.34;21.55
12951;BME280;6540;50.858;7.232;2023-05-19T10:49:23;51584.22;;;-142.34;21.98
12951;BME280;6540;50.858;7.232;2023-05-19T10:51:50;51566.09;;;-142.34;21.05
12951;BME280;6540;50.858;7.232;2023-05-19T10:54:16;51531.78;;;-142.34;21.52
12951;BME280;6540;50.858;7.232;2023-05-19T10:56:43;51576.16;;;-142.34;22.17
12951;BME280;6540;50.858;7.232;2023-05-19T10:59:34;51572.13;;;-142.34;21.57
12951;BME280;6540;50.858;7.232;2023-05-19T11:02:05;51584.22;;;-142.34;21.23
12951;BME280;6540;50.858;7.232;2023-05-19T11:04:38;51598.34;;;-142.34;21.37
12951;BME280;6540;50.858;7.232;2023-05-19T11:07:08;51547.94;;;-142.34;21.55
12951;BME280;6540;50.858;7.232;2023-05-19T11:09:39;51489.44;;;-142.34;21.08
12951;BME280;6540;50.858;7.232;2023-05-19T11:12:05;51489.44;;;-142.34;21.13
12951;BME280;6540;50.858;7.232;2023-05-19T11:14:31;51479.34;;;-142.34;20.76
12951;BME280;6540;50.858;7.232;2023-05-19T11:16:58;51572.13;;;-142.34;21.91
12951;BME280;6540;50.858;7.232;2023-05-19T11:21:54;51604.41;;;-142.34;21.84
12951;BME280;6540;50.858;7.232;2023-05-19T11:27:26;51475.31;;;-142.34;21.13
12951;BME280;6540;50.858;7.232;2023-05-19T11:29:54;51434.97;;;-142.34;20.71
12951;BME280;6540;50.858;7.232;2023-05-19T11:32:21;51533.81;;;-142.34;21.31
12951;BME280;6540;50.858;7.232;2023-05-19T11:34:48;51475.31;;;-142.34;20.71
12951;BME280;6540;50.858;7.232;2023-05-19T11:37:14;51487.41;;;-142.34;20.42
12951;BME280;6540;50.858;7.232;2023-05-19T11:39:40;51515.66;;;-142.34;21.40
12951;BME280;6540;50.858;7.232;2023-05-19T11:42:07;51513.63;;;-142.34;20.59
12951;BME280;6540;50.858;7.232;2023-05-19T11:44:34;51507.59;;;-142.34;20.82
12951;BME280;6540;50.858;7.232;2023-05-19T11:46:59;51549.94;;;-142.34;21.15
12951;BME280;6540;50.858;7.232;2023-05-19T11:49:27;51543.88;;;-142.34;21.32
12951;BME280;6540;50.858;7.232;2023-05-19T11:51:56;51507.59;;;-142.34;20.82
12951;BME280;6540;50.858;7.232;2023-05-19T11:54:31;51551.97;;;-142.34;21.14
12951;BME280;6540;50.858;7.232;2023-05-19T11:56:59;51618.53;;;-142.34;22.59
12951;BME280;6540;50.858;7.232;2023-05-19T11:59:30;51588.28;;;-142.34;21.77
12951;BME280;6540;50.858;7.232;2023-05-19T12:01:56;51479.34;;;-142.34;20.67
12951;BME280;6540;50.858;7.232;2023-05-19T12:04:21;51507.59;;;-142.34;20.83
12951;BME280;6540;50.858;7.232;2023-05-19T12:06:50;51467.25;;;-142.34;20.87
12951;BME280;6540;50.858;7.232;2023-05-19T12:09:17;51527.75;;;-142.34;21.99
12951;BME280;6540;50.858;7.232;2023-05-19T12:11:46;51572.13;;;-142.34;21.47
12951;BME280;6540;50.858;7.232;2023-05-19T12:14:11;51493.47;;;-142.34;20.51
12951;BME280;6540;50.858;7.232;2023-05-19T12:16:37;51507.59;;;-142.34;21.22
12951;BME280;6540;50.858;7.232;2023-05-19T12:19:05;51529.78;;;-142.34;20.96
12951;BME280;6540;50.858;7.232;2023-05-19T12:21:31;51495.47;;;-142.34;20.57
12951;BME280;6540;50.858;7.232;2023-05-19T12:23:57;51560.03;;;-142.34;21.45
12951;BME280;6540;50.858;7.232;2023-05-19T12:26:23;51493.47;;;-142.34;20.71
12951;BME280;6540;50.858;7.232;2023-05-19T12:28:48;51535.81;;;-142.34;20.77
12951;BME280;6540;50.858;7.232;2023-05-19T12:31:15;51475.31;;;-142.34;21.09
12951;BME280;6540;50.858;7.232;2023-05-19T12:33:41;51539.84;;;-142.34;20.44
12951;BME280;6540;50.858;7.232;2023-05-19T12:36:07;51483.38;;;-142.34;21.01
12951;BME280;6540;50.858;7.232;2023-05-19T12:38:33;51539.84;;;-142.34;21.09
12951;BME280;6540;50.858;7.232;2023-05-19T12:41:01;51531.78;;;-142.34;21.17
12951;BME280;6540;50.858;7.232;2023-05-19T12:43:27;51535.81;;;-142.34;21.21
12951;BME280;6540;50.858;7.232;2023-05-19T12:45:52;51549.94;;;-142.34;21.28
12951;BME280;6540;50.858;7.232;2023-05-19T12:48:20;51533.81;;;-142.34;20.98
12951;BME280;6540;50.858;7.232;2023-05-19T12:50:47;51529.78;;;-142.34;22.00
12951;BME280;6540;50.858;7.232;2023-05-19T12:53:14;51491.44;;;-142.34;21.14
12951;BME280;6540;50.858;7.232;2023-05-19T12:55:40;51475.31;;;-142.34;20.93
12951;BME280;6540;50.858;7.232;2023-05-19T12:58:07;51439.00;;;-142.34;20.11
12951;BME280;6540;50.858;7.232;2023-05-19T13:00:33;51457.16;;;-142.34;20.62
12951;BME280;6540;50.858;7.232;2023-05-19T13:05:28;51422.88;;;-142.34;20.57
12951;BME280;6540;50.858;7.232;2023-05-19T13:10:23;51511.63;;;-142.34;20.64
12951;BME280;6540;50.858;7.232;2023-05-19T13:12:51;51515.66;;;-142.34;21.18
12951;BME280;6540;50.858;7.232;2023-05-19T13:15:17;51465.22;;;-142.34;20.87
12951;BME280;6540;50.858;7.232;2023-05-19T13:17:43;51471.28;;;-142.34;20.67
12951;BME280;6540;50.858;7.232;2023-05-19T13:20:11;51481.34;;;-142.34;20.73
12951;BME280;6540;50.858;7.232;2023-05-19T13:22:36;51400.69;;;-142.34;20.41